Time;durP1;ratioP1;P1;durP2;ratioP2;P2;SDS_P1;SDS_P2;PMS_P1;PMS_P2;Temp;Humidity;BMP_temperature;BMP_pressure;BME280_temperature;BME280_humidity;BME280_pressure;Samples;Min_cycle;Max_cycle;Signal;HPM_P1;HPM_P2
2020/12/16 05:00:27;;;;;;;1999.90;999.90;;;7.50;99.90;;;;;;5933287;23;20175;-79
2020/12/16 05:02:55;;;;;;;1999.90;999.90;;;7.50;99.90;;;;;;5003681;28;20208;-78
2020/12/16 05:05:23;;;;;;;1999.90;999.90;;;7.60;99.90;;;;;;5004389;28;20223;-79
2020/12/16 05:07:50;;;;;;;1999.90;999.90;;;7.60;99.90;;;;;;5005369;28;20200;-79
2020/12/16 05:10:31;;;;;;;1999.90;999.90;;;7.70;99.90;;;;;;5000871;28;20204;-79
2020/12/16 05:13:05;;;;;;;1999.90;999.90;;;7.60;99.90;;;;;;5000995;28;20204;-79
2020/12/16 05:15:34;;;;;;;1999.90;999.90;;;7.70;99.90;;;;;;5002066;28;20254;-79
2020/12/16 05:18:09;;;;;;;1999.90;999.90;;;7.80;99.90;;;;;;5000961;28;20235;-79
2020/12/16 05:20:37;;;;;;;1999.90;999.90;;;7.70;99.90;;;;;;5003092;28;20704;-80
2020/12/16 05:23:05;;;;;;;1999.90;999.90;;;7.70;99.90;;;;;;5002843;28;20203;-79
2020/12/16 05:25:35;;;;;;;1999.90;999.90;;;7.70;99.90;;;;;;5002755;28;20224;-79
2020/12/16 05:28:03;;;;;;;1999.90;999.90;;;7.70;99.90;;;;;;5004071;28;20208;-79
2020/12/16 05:30:31;;;;;;;1999.90;999.90;;;7.70;99.90;;;;;;5003241;28;20226;-79
2020/12/16 05:33:03;;;;;;;1999.90;999.90;;;7.70;99.90;;;;;;5002806;28;20204;-80
2020/12/16 05:35:32;;;;;;;1999.90;999.90;;;7.80;99.90;;;;;;5000665;28;20231;-79
2020/12/16 05:38:01;;;;;;;1999.90;999.90;;;7.90;99.90;;;;;;4996325;28;20211;-78
2020/12/16 05:40:30;;;;;;;1999.90;999.90;;;7.90;99.90;;;;;;4992162;28;20665;-79
2020/12/16 05:42:57;;;;;;;1999.90;999.90;;;8.00;99.90;;;;;;5001844;28;20251;-79
2020/12/16 05:45:27;;;;;;;1999.90;999.90;;;8.00;99.90;;;;;;5000666;28;20231;-80
2020/12/16 05:47:59;;;;;;;1999.90;999.90;;;8.00;99.90;;;;;;4999703;28;20739;-79
2020/12/16 05:50:40;;;;;;;1999.90;999.90;;;8.00;99.90;;;;;;5000624;28;20569;-78
2020/12/16 05:53:10;;;;;;;1999.90;999.90;;;7.90;99.90;;;;;;5000599;28;20259;-78
2020/12/16 05:55:53;;;;;;;1999.90;999.90;;;8.00;99.90;;;;;;5000765;28;20546;-79
2020/12/16 05:58:22;;;;;;;1999.90;999.90;;;7.80;99.90;;;;;;5001365;28;20215;-79
2020/12/16 06:00:54;;;;;;;1999.90;999.90;;;7.70;99.90;;;;;;5001390;28;20594;-78
2020/12/16 06:03:28;;;;;;;1999.90;999.90;;;7.80;99.90;;;;;;5001182;28;20210;-78
2020/12/16 06:05:58;;;;;;;1999.90;999.90;;;7.80;99.90;;;;;;5008749;28;20203;-78
2020/12/16 06:08:28;;;;;;;1999.90;999.90;;;8.40;99.90;;;;;;5019162;28;20214;-78
2020/12/16 06:10:56;;;;;;;1999.90;999.90;;;7.80;99.90;;;;;;5018018;28;20227;-78
2020/12/16 06:13:23;;;;;;;1999.90;999.90;;;7.80;99.90;;;;;;5017934;28;20222;-77
2020/12/16 06:16:00;;;;;;;1999.90;999.90;;;7.70;99.90;;;;;;5018775;28;20660;-78
2020/12/16 06:18:29;;;;;;;1999.90;999.90;;;7.60;99.90;;;;;;5019015;28;20581;-81
2020/12/16 06:20:58;;;;;;;1999.90;999.90;;;7.70;99.90;;;;;;5020524;28;20734;-78
2020/12/16 06:23:31;;;;;;;1999.90;999.90;;;7.70;99.90;;;;;;5019012;28;20730;-78
2020/12/16 06:26:10;;;;;;;1999.90;999.90;;;7.80;99.90;;;;;;5019723;28;20553;-76
2020/12/16 06:28:37;;;;;;;1999.90;999.90;;;7.80;99.90;;;;;;5018547;28;20203;-78
2020/12/16 06:31:12;;;;;;;1999.90;999.90;;;7.80;99.90;;;;;;5017674;28;20281;-78
2020/12/16 06:33:45;;;;;;;1999.90;999.90;;;7.80;99.90;;;;;;5019102;28;20213;-78
2020/12/16 06:36:13;;;;;;;1999.90;999.90;;;7.80;99.90;;;;;;5020109;28;20265;-79
2020/12/16 06:38:44;;;;;;;1999.90;999.90;;;7.80;99.90;;;;;;5016693;28;20204;-78
2020/12/16 06:41:22;;;;;;;1999.90;999.90;;;7.90;99.90;;;;;;5016568;28;20250;-80
2020/12/16 06:43:50;;;;;;;1999.90;999.90;;;7.80;99.90;;;;;;5016474;28;20219;-77
2020/12/16 06:46:38;;;;;;;1999.90;999.90;;;7.90;99.90;;;;;;5017977;28;20250;-78
2020/12/16 06:49:07;;;;;;;1999.90;999.90;;;7.80;99.90;;;;;;5017783;28;20207;-77
2020/12/16 06:51:42;;;;;;;1999.90;999.90;;;7.90;99.90;;;;;;5018469;28;20507;-78
2020/12/16 06:54:11;;;;;;;1999.90;999.90;;;7.90;99.90;;;;;;5018195;28;20207;-77
2020/12/16 06:56:41;;;;;;;1999.90;999.90;;;7.90;99.90;;;;;;5017582;28;20203;-78
2020/12/16 06:59:08;;;;;;;1999.90;999.90;;;7.80;99.90;;;;;;5016889;28;20238;-78
2020/12/16 07:01:35;;;;;;;1999.90;999.90;;;7.90;99.90;;;;;;5017001;28;20646;-77
2020/12/16 07:04:02;;;;;;;1999.90;999.90;;;7.90;99.90;;;;;;5007949;28;20615;-78
2020/12/16 07:06:41;;;;;;;1999.90;999.90;;;7.90;99.90;;;;;;4996387;28;20691;-78
2020/12/16 07:09:19;;;;;;;1999.90;999.90;;;7.80;99.90;;;;;;4994027;28;20203;-79
2020/12/16 07:11:47;;;;;;;1999.90;999.90;;;8.00;99.90;;;;;;4998840;28;20647;-78
2020/12/16 07:14:15;;;;;;;1999.90;999.90;;;8.00;99.90;;;;;;5005653;28;20204;-78
2020/12/16 07:16:43;;;;;;;1999.90;999.90;;;7.90;99.90;;;;;;5005732;28;20230;-79
2020/12/16 07:19:10;;;;;;;1999.90;999.90;;;8.00;99.90;;;;;;5005812;28;20207;-79
2020/12/16 07:21:39;;;;;;;1999.90;999.90;;;8.00;99.90;;;;;;5006352;28;20220;-78
2020/12/16 07:24:10;;;;;;;1999.90;999.90;;;8.10;99.90;;;;;;5006418;28;20779;-78
2020/12/16 07:26:48;;;;;;;1999.90;999.90;;;8.00;99.90;;;;;;5007952;28;20200;-77
2020/12/16 07:29:22;;;;;;;1999.90;999.90;;;8.10;99.90;;;;;;5010146;28;20204;-78
2020/12/16 07:31:58;;;;;;;1999.90;999.90;;;8.10;99.90;;;;;;5005541;28;20724;-78
2020/12/16 07:34:25;;;;;;;1999.90;999.90;;;8.20;99.90;;;;;;5010382;28;20204;-80
2020/12/16 07:36:56;;;;;;;1999.90;999.90;;;8.30;99.90;;;;;;5005142;28;20235;-80
2020/12/16 07:39:24;;;;;;;1999.90;999.90;;;8.30;99.90;;;;;;5001296;28;20207;-79
2020/12/16 07:41:51;;;;;;;1999.90;999.90;;;8.30;99.90;;;;;;5000398;28;20432;-79
2020/12/16 07:44:18;;;;;;;1999.90;999.90;;;8.40;99.90;;;;;;5001006;28;20267;-80
2020/12/16 07:46:45;;;;;;;1999.90;999.90;;;8.50;99.90;;;;;;4999502;28;20262;-80
2020/12/16 07:49:13;;;;;;;1999.90;999.90;;;8.40;99.90;;;;;;5000367;28;20203;-79
2020/12/16 07:51:39;;;;;;;1999.90;999.90;;;8.30;99.90;;;;;;5000134;28;20279;-79
2020/12/16 07:54:06;;;;;;;1999.90;999.90;;;8.30;99.90;;;;;;4999903;28;20728;-80
2020/12/16 07:56:34;;;;;;;1999.90;999.90;;;8.30;99.90;;;;;;5000570;28;20204;-79
2020/12/16 07:59:11;;;;;;;1999.90;999.90;;;8.20;99.90;;;;;;4997684;28;20664;-78
2020/12/16 08:01:39;;;;;;;1999.90;999.90;;;8.10;99.90;;;;;;4998964;28;20281;-80
2020/12/16 08:04:06;;;;;;;1999.90;999.90;;;8.10;99.90;;;;;;4998778;28;20417;-79
2020/12/16 08:06:33;;;;;;;1999.90;999.90;;;8.10;99.90;;;;;;4998505;28;20234;-78
2020/12/16 08:09:00;;;;;;;1999.90;999.90;;;8.20;99.90;;;;;;4998257;28;20207;-79
2020/12/16 08:11:28;;;;;;;1999.90;999.90;;;8.30;99.90;;;;;;4996518;28;20248;-80
2020/12/16 08:14:06;;;;;;;1999.90;999.90;;;8.30;99.90;;;;;;4997368;28;20353;-79
2020/12/16 08:16:36;;;;;;;1999.90;999.90;;;8.40;99.90;;;;;;4998453;28;20223;-79
2020/12/16 08:19:04;;;;;;;1999.90;999.90;;;8.40;99.90;;;;;;4999310;28;20208;-78
2020/12/16 08:21:31;;;;;;;1999.90;999.90;;;8.50;99.90;;;;;;4998434;28;20220;-78
2020/12/16 08:23:57;;;;;;;1999.90;999.90;;;8.60;99.90;;;;;;4997135;28;20290;-78
2020/12/16 08:26:26;;;;;;;1999.90;999.90;;;8.70;99.90;;;;;;4998873;28;20618;-79
2020/12/16 08:28:53;;;;;;;1999.90;999.90;;;8.70;99.90;;;;;;4998979;28;20673;-79
2020/12/16 08:31:33;;;;;;;1999.90;999.90;;;8.70;99.90;;;;;;4999345;28;20282;-78
2020/12/16 08:34:02;;;;;;;1999.90;999.90;;;8.80;99.90;;;;;;4999861;28;20267;-78
2020/12/16 08:36:33;;;;;;;1999.90;999.90;;;8.80;99.90;;;;;;4998134;28;20227;-80
2020/12/16 08:39:06;;;;;;;1999.90;999.90;;;8.80;99.90;;;;;;4997739;28;20251;-78
2020/12/16 08:41:36;;;;;;;1999.90;999.90;;;8.90;99.90;;;;;;4999828;28;20450;-78
2020/12/16 08:44:06;;;;;;;1999.90;999.90;;;8.80;99.90;;;;;;4998751;28;20207;-79
2020/12/16 08:46:39;;;;;;;1999.90;999.90;;;8.80;99.90;;;;;;4999902;28;20200;-78
2020/12/16 08:49:07;;;;;;;1999.90;999.90;;;8.80;99.90;;;;;;4997155;28;20723;-77
2020/12/16 08:51:36;;;;;;;1999.90;999.90;;;8.80;99.90;;;;;;4997195;28;20223;-77
2020/12/16 08:54:04;;;;;;;1999.90;999.90;;;8.70;99.90;;;;;;4999044;28;20204;-78
2020/12/16 08:56:33;;;;;;;1999.90;999.90;;;8.80;99.90;;;;;;5001227;28;20210;-78
2020/12/16 08:59:05;;;;;;;1999.90;999.90;;;8.90;99.90;;;;;;4999601;28;20207;-78
2020/12/16 09:01:33;;;;;;;1999.90;999.90;;;8.90;99.90;;;;;;4999552;28;20282;-78
2020/12/16 09:04:00;;;;;;;1999.90;999.90;;;9.00;99.90;;;;;;5000055;28;20207;-78
2020/12/16 09:06:27;;;;;;;1999.90;999.90;;;9.00;99.90;;;;;;4999726;28;20290;-78
2020/12/16 09:08:54;;;;;;;1999.90;999.90;;;9.00;99.90;;;;;;4999684;28;20668;-80
2020/12/16 09:11:22;;;;;;;1999.90;999.90;;;9.00;99.90;;;;;;5000495;28;20223;-78
2020/12/16 09:13:50;;;;;;;1999.90;999.90;;;9.00;99.90;;;;;;4999504;28;20622;-77
2020/12/16 09:16:22;;;;;;;1999.90;999.90;;;8.80;99.90;;;;;;4998689;28;20196;-79
2020/12/16 09:18:50;;;;;;;1999.90;999.90;;;8.80;99.90;;;;;;4998241;28;20204;-78
2020/12/16 09:21:29;;;;;;;1999.90;999.90;;;8.70;99.90;;;;;;4998671;28;20227;-78
2020/12/16 09:23:57;;;;;;;1999.90;999.90;;;8.70;99.90;;;;;;4997324;28;20286;-78
2020/12/16 09:26:34;;;;;;;1999.90;999.90;;;8.80;99.90;;;;;;5005229;28;20250;-79
2020/12/16 09:29:01;;;;;;;1999.90;999.90;;;8.80;99.90;;;;;;5004803;28;20203;-79
2020/12/16 09:31:28;;;;;;;1999.90;999.90;;;8.80;99.90;;;;;;5005214;28;20251;-79
2020/12/16 09:33:56;;;;;;;1999.90;999.90;;;8.80;99.90;;;;;;5004754;28;20639;-79
2020/12/16 09:36:24;;;;;;;1999.90;999.90;;;8.80;99.90;;;;;;5004931;28;20218;-79
2020/12/16 09:38:55;;;;;;;1999.90;999.90;;;8.80;99.90;;;;;;5004584;28;20216;-79
2020/12/16 09:41:22;;;;;;;1999.90;999.90;;;8.90;99.90;;;;;;5004220;28;20227;-79
2020/12/16 09:43:49;;;;;;;1999.90;999.90;;;8.90;99.90;;;;;;5004575;28;20215;-78
2020/12/16 09:46:17;;;;;;;1999.90;999.90;;;8.90;99.90;;;;;;5005098;28;20258;-79
2020/12/16 09:48:45;;;;;;;1999.90;999.90;;;9.00;99.90;;;;;;5004800;28;20216;-79
2020/12/16 09:51:19;;;;;;;1999.90;999.90;;;9.10;99.90;;;;;;5004796;28;20251;-79
2020/12/16 09:53:47;;;;;;;1999.90;999.90;;;9.10;99.90;;;;;;5005637;28;20250;-79
2020/12/16 09:56:24;;;;;;;1999.90;999.90;;;9.00;99.90;;;;;;5007791;28;20203;-78
2020/12/16 09:58:51;;;;;;;1999.90;999.90;;;9.00;99.90;;;;;;5004228;28;20248;-79
2020/12/16 10:01:18;;;;;;;1999.90;999.90;;;9.00;99.90;;;;;;5004176;28;20294;-79
2020/12/16 10:03:48;;;;;;;1999.90;999.90;;;8.90;99.90;;;;;;5004339;28;20259;-78
2020/12/16 10:06:17;;;;;;;1999.90;999.90;;;8.90;99.90;;;;;;5003174;28;20204;-79
2020/12/16 10:08:44;;;;;;;1999.90;999.90;;;8.70;99.90;;;;;;5003840;28;20282;-78
2020/12/16 10:11:11;;;;;;;1999.90;999.90;;;8.70;99.90;;;;;;5003714;28;20220;-78
2020/12/16 10:13:39;;;;;;;1999.90;999.90;;;8.60;99.90;;;;;;5004046;28;20231;-77
2020/12/16 10:16:08;;;;;;;1999.90;999.90;;;8.50;99.90;;;;;;5003518;28;20204;-78
2020/12/16 10:18:35;;;;;;;1999.90;999.90;;;8.60;99.90;;;;;;5003217;28;20223;-79
2020/12/16 10:21:02;;;;;;;1999.90;999.90;;;8.60;99.90;;;;;;5004031;28;20220;-78
2020/12/16 10:23:30;;;;;;;1999.90;999.90;;;8.60;99.90;;;;;;5003704;28;20228;-79
2020/12/16 10:25:57;;;;;;;1999.90;999.90;;;8.50;99.90;;;;;;5004835;28;20456;-80
2020/12/16 10:28:34;;;;;;;1999.90;999.90;;;8.40;99.90;;;;;;5001570;28;20199;-78
2020/12/16 10:31:01;;;;;;;1999.90;999.90;;;8.40;99.90;;;;;;5001727;28;20696;-78
2020/12/16 10:33:28;;;;;;;1999.90;999.90;;;8.30;99.90;;;;;;5001321;28;20214;-78
2020/12/16 10:35:54;;;;;;;1999.90;999.90;;;8.30;99.90;;;;;;5000827;28;20200;-78
2020/12/16 10:38:21;;;;;;;1999.90;999.90;;;8.10;99.90;;;;;;4999819;28;20629;-79
2020/12/16 10:40:49;;;;;;;1999.90;999.90;;;8.10;99.90;;;;;;4998980;28;20220;-78
2020/12/16 10:43:16;;;;;;;1999.90;999.90;;;8.20;99.90;;;;;;4998924;28;20211;-77
2020/12/16 10:45:43;;;;;;;1999.90;999.90;;;8.20;99.90;;;;;;4997406;28;20266;-78
2020/12/16 10:48:10;;;;;;;1999.90;999.90;;;8.30;99.90;;;;;;4995137;28;20204;-77
2020/12/16 10:50:36;;;;;;;1999.90;999.90;;;8.40;99.90;;;;;;4994792;28;20272;-74
2020/12/16 10:53:04;;;;;;;1999.90;999.90;;;8.40;99.90;;;;;;4994727;28;20200;-74
2020/12/16 10:55:31;;;;;;;1999.90;999.90;;;8.60;99.90;;;;;;4995217;28;20607;-77
2020/12/16 10:57:59;;;;;;;1999.90;999.90;;;8.60;99.90;;;;;;4994934;28;20333;-77
2020/12/16 11:00:26;;;;;;;1999.90;999.90;;;8.60;99.90;;;;;;4995172;28;20235;-80
2020/12/16 11:02:53;;;;;;;1999.90;999.90;;;8.60;99.90;;;;;;4995221;28;20259;-77
2020/12/16 11:05:20;;;;;;;1999.90;999.90;;;8.60;99.90;;;;;;4996039;28;20270;-77
2020/12/16 11:07:47;;;;;;;1999.90;999.90;;;8.50;99.90;;;;;;4995893;28;20631;-80
2020/12/16 11:10:14;;;;;;;1999.90;999.90;;;8.50;99.90;;;;;;4999621;28;20204;-80
2020/12/16 11:12:40;;;;;;;1999.90;999.90;;;8.50;99.90;;;;;;4999848;28;20254;-80
2020/12/16 11:15:08;;;;;;;1999.90;999.90;;;8.50;99.90;;;;;;4997861;28;20724;-80
2020/12/16 11:17:35;;;;;;;1999.90;999.90;;;8.50;99.90;;;;;;4995667;28;20204;-79
2020/12/16 11:20:03;;;;;;;1999.90;999.90;;;8.50;99.90;;;;;;4997144;28;20756;-78
2020/12/16 11:22:29;;;;;;;1999.90;999.90;;;8.60;99.90;;;;;;4996129;28;20278;-81
2020/12/16 11:24:56;;;;;;;1999.90;999.90;;;8.60;99.90;;;;;;4995012;28;20220;-78
2020/12/16 11:27:23;;;;;;;1999.90;999.90;;;8.60;99.90;;;;;;4994689;28;20204;-78
2020/12/16 11:29:50;;;;;;;1999.90;999.90;;;8.60;99.90;;;;;;4995426;28;20661;-77
2020/12/16 11:32:18;;;;;;;1999.90;999.90;;;8.60;99.90;;;;;;4988467;28;20227;-77
2020/12/16 11:34:45;;;;;;;1999.90;999.90;;;8.70;99.90;;;;;;4993794;28;20196;-78
2020/12/16 11:37:12;;;;;;;1999.90;999.90;;;8.70;99.90;;;;;;4993667;28;20291;-77
2020/12/16 11:39:39;;;;;;;1999.90;999.90;;;8.80;99.90;;;;;;4993088;28;20263;-78
2020/12/16 11:42:07;;;;;;;1999.90;999.90;;;8.90;99.90;;;;;;4992706;28;20774;-77
2020/12/16 11:44:34;;;;;;;1999.90;999.90;;;8.90;99.90;;;;;;4993140;28;20208;-76
2020/12/16 11:47:04;;;;;;;1999.90;999.90;;;8.90;99.90;;;;;;4993092;28;20204;-76
2020/12/16 11:49:32;;;;;;;1999.90;999.90;;;8.90;99.90;;;;;;4993075;28;20266;-76
2020/12/16 11:51:59;;;;;;;1999.90;999.90;;;8.90;99.90;;;;;;4992996;28;20255;-75
2020/12/16 11:54:26;;;;;;;1999.90;999.90;;;9.00;99.90;;;;;;4993040;28;20204;-75
2020/12/16 11:56:53;;;;;;;1999.90;999.90;;;8.90;99.90;;;;;;4993962;28;20614;-78
2020/12/16 11:59:26;;;;;;;1999.90;999.90;;;9.00;99.90;;;;;;4990733;28;20212;-77
2020/12/16 12:01:54;;;;;;;1999.90;999.90;;;8.90;99.90;;;;;;4987960;28;20242;-76
2020/12/16 12:04:21;;;;;;;1999.90;999.90;;;9.00;99.90;;;;;;4992549;28;20200;-77
2020/12/16 12:06:49;;;;;;;1999.90;999.90;;;8.90;99.90;;;;;;4992656;28;20208;-78
2020/12/16 12:09:20;;;;;;;1999.90;999.90;;;8.80;99.90;;;;;;4991445;28;20563;-76
2020/12/16 12:11:48;;;;;;;1999.90;999.90;;;8.80;99.90;;;;;;4992794;28;20286;-76
2020/12/16 12:14:16;;;;;;;1999.90;999.90;;;8.80;99.90;;;;;;4994319;28;20635;-77
2020/12/16 12:16:43;;;;;;;1999.90;999.90;;;8.70;99.90;;;;;;4993107;28;20208;-77
2020/12/16 12:19:11;;;;;;;1999.90;999.90;;;8.70;99.90;;;;;;4993223;28;20311;-78
2020/12/16 12:21:37;;;;;;;1999.90;999.90;;;8.70;99.90;;;;;;4992905;28;20800;-78
2020/12/16 12:24:06;;;;;;;1999.90;999.90;;;8.80;99.90;;;;;;4993479;28;20211;-77
2020/12/16 12:26:32;;;;;;;1999.90;999.90;;;8.90;99.90;;;;;;4993222;28;20231;-78
2020/12/16 12:28:59;;;;;;;1999.90;999.90;;;8.90;99.90;;;;;;4993604;28;20200;-79
2020/12/16 12:31:27;;;;;;;1999.90;999.90;;;9.00;99.90;;;;;;4995004;28;20275;-77
2020/12/16 12:33:54;;;;;;;1999.90;999.90;;;9.00;99.90;;;;;;4992325;28;20212;-77
2020/12/16 12:36:20;;;;;;;1999.90;999.90;;;9.00;99.90;;;;;;4992493;28;20211;-77
2020/12/16 12:38:51;;;;;;;1999.90;999.90;;;9.10;99.90;;;;;;4992122;28;20210;-76
2020/12/16 12:41:19;;;;;;;1999.90;999.90;;;9.20;99.90;;;;;;4992216;28;20224;-77
2020/12/16 12:43:46;;;;;;;1999.90;999.90;;;9.30;99.90;;;;;;4992274;28;20278;-76
2020/12/16 12:46:13;;;;;;;1999.90;999.90;;;9.40;99.90;;;;;;4992200;28;20223;-77
2020/12/16 12:48:40;;;;;;;1999.90;999.90;;;9.40;99.90;;;;;;4992289;28;20208;-77
2020/12/16 12:51:07;;;;;;;1999.90;999.90;;;9.40;99.90;;;;;;4992466;28;20266;-77
2020/12/16 12:53:50;;;;;;;1999.90;999.90;;;9.50;99.90;;;;;;4992278;28;20239;-77
2020/12/16 12:56:17;;;;;;;1999.90;999.90;;;9.50;99.90;;;;;;4992706;28;20203;-77
2020/12/16 12:58:45;;;;;;;1999.90;999.90;;;9.50;99.90;;;;;;4992973;28;20203;-77
2020/12/16 13:01:12;;;;;;;1999.90;999.90;;;9.60;99.90;;;;;;4993505;28;20232;-77
2020/12/16 13:03:39;;;;;;;1999.90;999.90;;;9.60;99.90;;;;;;4993134;28;20204;-77
2020/12/16 13:06:07;;;;;;;1999.90;999.90;;;9.60;99.90;;;;;;4992771;28;20638;-77
2020/12/16 13:08:34;;;;;;;1999.90;999.90;;;9.70;99.90;;;;;;5004677;28;20282;-79
2020/12/16 13:11:01;;;;;;;1999.90;999.90;;;9.70;99.90;;;;;;5012408;28;20249;-77
2020/12/16 13:13:29;;;;;;;1999.90;999.90;;;9.70;99.90;;;;;;5010324;28;20215;-77
2020/12/16 13:15:57;;;;;;;1999.90;999.90;;;9.80;99.90;;;;;;5010054;28;20199;-78
2020/12/16 13:18:24;;;;;;;1999.90;999.90;;;9.80;99.90;;;;;;5009427;28;20586;-80
2020/12/16 13:20:54;;;;;;;1999.90;999.90;;;9.80;99.90;;;;;;5011422;28;20219;-78
2020/12/16 13:23:22;;;;;;;1999.90;999.90;;;9.70;99.90;;;;;;5011834;28;20261;-79
2020/12/16 13:25:49;;;;;;;1999.90;999.90;;;9.70;99.90;;;;;;5011377;28;20219;-78
2020/12/16 13:28:16;;;;;;;1999.90;999.90;;;9.60;99.90;;;;;;5011765;28;20199;-80
2020/12/16 13:30:43;;;;;;;1999.90;999.90;;;9.60;99.90;;;;;;5012691;28;20226;-79
2020/12/16 13:33:11;;;;;;;1999.90;999.90;;;9.60;99.90;;;;;;5012575;28;20249;-78
2020/12/16 13:35:48;;;;;;;1999.90;999.90;;;9.50;99.90;;;;;;5012783;28;20211;-79
2020/12/16 13:38:15;;;;;;;1999.90;999.90;;;9.90;99.90;;;;;;5011981;28;20200;-79
2020/12/16 13:40:42;;;;;;;1999.90;999.90;;;9.50;99.90;;;;;;5013355;28;20250;-81
2020/12/16 13:43:08;;;;;;;1999.90;999.90;;;9.50;99.90;;;;;;5016895;28;20266;-78
2020/12/16 13:45:35;;;;;;;1999.90;999.90;;;9.50;99.90;;;;;;5018465;28;20222;-78
2020/12/16 13:48:03;;;;;;;1999.90;999.90;;;9.40;99.90;;;;;;5016523;28;20257;-80
2020/12/16 13:50:30;;;;;;;1999.90;999.90;;;9.40;99.90;;;;;;5000770;28;20235;-81
2020/12/16 13:52:57;;;;;;;1999.90;999.90;;;9.50;99.90;;;;;;4996179;28;20231;-78
2020/12/16 13:55:25;;;;;;;1999.90;999.90;;;9.50;99.90;;;;;;4996574;28;20211;-78
2020/12/16 13:57:51;;;;;;;1999.90;999.90;;;9.50;99.90;;;;;;4996828;28;20625;-79
2020/12/16 14:00:32;;;;;;;1999.90;999.90;;;9.40;99.90;;;;;;4995728;28;20235;-79
2020/12/16 14:02:59;;;;;;;1999.90;999.90;;;9.30;99.90;;;;;;4995474;28;20200;-78
2020/12/16 14:05:26;;;;;;;1999.90;999.90;;;9.20;99.90;;;;;;4996213;28;20219;-78
2020/12/16 14:07:53;;;;;;;1999.90;999.90;;;9.20;99.90;;;;;;4995358;28;20414;-78
2020/12/16 14:10:20;;;;;;;1999.90;999.90;;;9.30;99.90;;;;;;4993476;28;20215;-77
2020/12/16 14:12:47;;;;;;;1999.90;999.90;;;9.20;99.90;;;;;;4994118;28;20214;-78
2020/12/16 14:15:14;;;;;;;1999.90;999.90;;;9.10;99.90;;;;;;4993666;28;20270;-77
2020/12/16 14:17:41;;;;;;;1999.90;999.90;;;9.10;99.90;;;;;;4993460;28;20716;-77
2020/12/16 14:20:08;;;;;;;1999.90;999.90;;;9.00;99.90;;;;;;4994568;28;20203;-77
2020/12/16 14:22:35;;;;;;;1999.90;999.90;;;8.90;99.90;;;;;;4995752;28;20223;-78
2020/12/16 14:25:03;;;;;;;1999.90;999.90;;;8.90;99.90;;;;;;4996272;28;20254;-78
2020/12/16 14:27:29;;;;;;;1999.90;999.90;;;8.90;99.90;;;;;;4994755;28;20254;-80
2020/12/16 14:29:56;;;;;;;1999.90;999.90;;;8.90;99.90;;;;;;4994515;28;20251;-77
2020/12/16 14:32:25;;;;;;;1999.90;999.90;;;8.80;99.90;;;;;;4995472;28;20228;-80
2020/12/16 14:34:51;;;;;;;1999.90;999.90;;;8.70;99.90;;;;;;4995518;28;20208;-77
2020/12/16 14:37:18;;;;;;;1999.90;999.90;;;8.50;99.90;;;;;;4996479;28;20258;-79
2020/12/16 14:39:45;;;;;;;1999.90;999.90;;;8.50;99.90;;;;;;4996270;28;20208;-78
2020/12/16 14:42:13;;;;;;;1999.90;999.90;;;8.40;99.90;;;;;;4996950;28;20227;-79
2020/12/16 14:44:40;;;;;;;1999.90;999.90;;;8.40;99.90;;;;;;4996984;28;20569;-76
2020/12/16 14:47:08;;;;;;;1999.90;999.90;;;8.40;99.90;;;;;;4996855;28;20224;-80
2020/12/16 14:49:35;;;;;;;1999.90;999.90;;;8.30;99.90;;;;;;4997288;28;20204;-78
2020/12/16 14:52:03;;;;;;;1999.90;999.90;;;8.30;99.90;;;;;;4996172;28;20224;-78
2020/12/16 14:54:30;;;;;;;1999.90;999.90;;;8.30;99.90;;;;;;4997544;28;20204;-80
2020/12/16 14:56:57;;;;;;;1999.90;999.90;;;8.10;99.90;;;;;;4997537;28;20582;-78
2020/12/16 14:59:25;;;;;;;1999.90;999.90;;;8.00;99.90;;;;;;4995720;28;20629;-78
2020/12/16 15:01:52;;;;;;;1999.90;999.90;;;7.90;99.90;;;;;;4996367;28;20236;-79
2020/12/16 15:04:19;;;;;;;1999.90;999.90;;;7.80;99.90;;;;;;4997075;28;20203;-79
2020/12/16 15:06:46;;;;;;;1999.90;999.90;;;7.80;99.90;;;;;;4996835;28;20222;-80
2020/12/16 15:09:13;;;;;;;1999.90;999.90;;;7.80;99.90;;;;;;4997147;28;20226;-78
2020/12/16 15:11:41;;;;;;;1999.90;999.90;;;7.60;99.90;;;;;;4996984;28;20247;-79
2020/12/16 15:14:08;;;;;;;1999.90;999.90;;;7.70;99.90;;;;;;4996379;28;20216;-78
2020/12/16 15:16:36;;;;;;;1999.90;999.90;;;7.60;99.90;;;;;;4994924;28;20274;-77
2020/12/16 15:19:03;;;;;;;1999.90;999.90;;;7.50;99.90;;;;;;4995439;28;20212;-78
2020/12/16 15:21:30;;;;;;;1999.90;999.90;;;7.40;99.90;;;;;;4995434;28;20223;-79
2020/12/16 15:23:58;;;;;;;1999.90;999.90;;;7.40;99.90;;;;;;4995648;28;20200;-78
2020/12/16 15:26:25;;;;;;;1999.90;999.90;;;7.40;99.90;;;;;;4994770;28;20244;-78
2020/12/16 15:28:52;;;;;;;1999.90;999.90;;;7.40;99.90;;;;;;4994627;28;20204;-77
2020/12/16 15:31:25;;;;;;;1999.90;999.90;;;7.40;99.90;;;;;;4996301;28;20251;-78
2020/12/16 15:33:53;;;;;;;1999.90;999.90;;;7.40;99.90;;;;;;4996976;28;20258;-79
2020/12/16 15:36:20;;;;;;;1999.90;999.90;;;7.30;99.90;;;;;;4994886;28;20204;-77
2020/12/16 15:38:47;;;;;;;1999.90;999.90;;;7.30;99.90;;;;;;4993521;28;20262;-77
2020/12/16 15:41:15;;;;;;;1999.90;999.90;;;7.20;99.90;;;;;;4992890;28;20700;-77
2020/12/16 15:43:42;;;;;;;1999.90;999.90;;;7.10;99.90;;;;;;4992906;28;20200;-77
2020/12/16 15:46:13;;;;;;;1999.90;999.90;;;7.10;99.90;;;;;;4993337;28;20286;-77
2020/12/16 15:48:40;;;;;;;1999.90;999.90;;;7.10;99.90;;;;;;4992847;28;20204;-77
2020/12/16 15:51:10;;;;;;;1999.90;999.90;;;7.00;99.90;;;;;;4993043;28;20270;-77
2020/12/16 15:53:37;;;;;;;1999.90;999.90;;;7.00;99.90;;;;;;4993235;28;20254;-77
2020/12/16 15:56:08;;;;;;;1999.90;999.90;;;7.00;99.90;;;;;;4992776;28;20262;-77
2020/12/16 15:58:34;;;;;;;1999.90;999.90;;;7.10;99.90;;;;;;4992947;28;20600;-77
2020/12/16 16:01:03;;;;;;;1999.90;999.90;;;7.10;99.90;;;;;;4992677;28;20590;-77
2020/12/16 16:03:33;;;;;;;1999.90;999.90;;;7.10;99.90;;;;;;4992978;28;20243;-77
2020/12/16 16:06:00;;;;;;;1999.90;999.90;;;7.10;99.90;;;;;;4992672;28;20220;-77
2020/12/16 16:08:28;;;;;;;1999.90;999.90;;;7.00;99.90;;;;;;4992727;28;20200;-77
2020/12/16 16:10:55;;;;;;;1999.90;999.90;;;6.90;99.90;;;;;;4993166;28;20716;-77
2020/12/16 16:13:22;;;;;;;1999.90;999.90;;;6.90;99.90;;;;;;4994390;28;20204;-77
2020/12/16 16:15:49;;;;;;;1999.90;999.90;;;6.80;99.90;;;;;;4994967;28;20711;-77
2020/12/16 16:18:16;;;;;;;1999.90;999.90;;;6.80;99.90;;;;;;4994852;28;20254;-78
2020/12/16 16:20:43;;;;;;;1999.90;999.90;;;6.80;99.90;;;;;;4994626;28;20286;-77
2020/12/16 16:23:10;;;;;;;1999.90;999.90;;;6.70;99.90;;;;;;4996176;28;20212;-77
2020/12/16 16:25:38;;;;;;;1999.90;999.90;;;6.80;99.90;;;;;;4998300;28;20228;-77
2020/12/16 16:28:05;;;;;;;1999.90;999.90;;;6.70;99.90;;;;;;4995529;28;20208;-78
2020/12/16 16:30:32;;;;;;;1999.90;999.90;;;6.70;99.90;;;;;;4995244;28;20232;-77
2020/12/16 16:33:01;;;;;;;1999.90;999.90;;;6.70;99.90;;;;;;4995256;28;20208;-77
2020/12/16 16:35:28;;;;;;;1999.90;999.90;;;6.70;99.90;;;;;;4995234;28;20247;-77
2020/12/16 16:37:55;;;;;;;1999.90;999.90;;;6.70;99.90;;;;;;4994493;28;20219;-78
2020/12/16 16:40:22;;;;;;;1999.90;999.90;;;6.60;99.90;;;;;;4993589;28;20252;-77
2020/12/16 16:42:50;;;;;;;1999.90;999.90;;;6.60;99.90;;;;;;4994301;28;20258;-76
2020/12/16 16:45:17;;;;;;;1999.90;999.90;;;6.50;99.90;;;;;;4996591;28;20203;-79
2020/12/16 16:47:44;;;;;;;1999.90;999.90;;;6.40;99.90;;;;;;4992922;28;20262;-81
2020/12/16 16:50:12;;;;;;;1999.90;999.90;;;6.30;99.90;;;;;;4995562;28;20669;-79
2020/12/16 16:52:39;;;;;;;1999.90;999.90;;;6.20;99.90;;;;;;4994917;28;20967;-79
2020/12/16 16:55:07;;;;;;;1999.90;999.90;;;6.20;99.90;;;;;;4996157;28;20262;-81
2020/12/16 16:57:34;;;;;;;1999.90;999.90;;;6.10;99.90;;;;;;4995516;28;20207;-77
2020/12/16 17:00:07;;;;;;;1999.90;999.90;;;6.10;99.90;;;;;;4994052;28;20208;-77
2020/12/16 17:02:34;;;;;;;1999.90;999.90;;;6.10;99.90;;;;;;4993410;28;20239;-82
2020/12/16 17:05:02;;;;;;;1999.90;999.90;;;6.10;99.90;;;;;;4995288;28;20258;-79
2020/12/16 17:07:29;;;;;;;1999.90;999.90;;;6.10;99.90;;;;;;4993571;28;20647;-77
2020/12/16 17:09:56;;;;;;;1999.90;999.90;;;6.10;99.90;;;;;;4995062;28;20735;-78
2020/12/16 17:12:25;;;;;;;1999.90;999.90;;;6.10;99.90;;;;;;4995301;28;20331;-79
2020/12/16 17:14:52;;;;;;;1999.90;999.90;;;6.10;99.90;;;;;;4997598;28;20207;-78